Gdansk, Poland
Current Conditions -  °F | °C
As of 9:30 PM on Sunday 21 Dec 2014 (Local Time) from EPGD Reporting Station
Broken Clouds Broken Clouds  
Wind Chill: 31°   Ceiling: 1300
Heat Index: 39°   Visibility: 6mi
Dew Point: 36°   Wind: 15mph
Humidity: 87%   Direction: 260°W
Pressure: 29.85"   Gusts: NA
Location:  54.36°N, 18.64°E
Report Text: EPGD 211930Z 26013KT 230V290 9999 BKN013 04/02 Q1011
Loading
Personal Weather Stations






























Interactive Weather Map New forecast layout! Learn more

10-Day Weather Forecast

Advertisements
Track Severe Weather on mobile